createdAt,value
2023-01-20T20:37:12.477Z,34.70
2023-01-20T20:39:41.974Z,35.50
2023-01-20T20:42:08.735Z,38.20
2023-01-20T20:44:35.767Z,40.90
2023-01-20T20:47:02.795Z,39.60
2023-01-20T20:49:31.492Z,37.90
2023-01-20T20:52:00.730Z,42.00
2023-01-20T20:54:27.757Z,42.40
2023-01-20T20:56:54.895Z,40.00
2023-01-20T20:59:24.827Z,39.40
2023-01-20T21:01:52.609Z,38.80
2023-01-20T21:04:19.491Z,42.30
2023-01-20T21:06:46.302Z,40.80
2023-01-20T21:09:13.240Z,38.80
2023-01-20T21:11:42.936Z,37.60
2023-01-20T21:14:10.170Z,36.60
2023-01-20T21:16:37.928Z,36.50
2023-01-20T21:19:05.250Z,37.30
2023-01-20T21:21:35.543Z,42.80
2023-01-20T21:24:02.669Z,40.00
2023-01-20T21:26:30.721Z,37.90
2023-01-20T21:29:01.852Z,37.60
2023-01-20T21:31:31.076Z,44.80
2023-01-20T21:33:58.923Z,43.20
2023-01-20T21:36:27.695Z,36.90
2023-01-20T21:38:56.784Z,37.70
2023-01-20T21:41:23.779Z,39.00
2023-01-20T21:44:09.153Z,41.40
2023-01-20T21:46:40.536Z,43.10
2023-01-20T21:52:29.894Z,40.90
2023-01-20T21:54:56.771Z,38.70
2023-01-20T21:57:24.572Z,40.00
2023-01-20T21:59:52.370Z,42.00
2023-01-20T22:02:19.387Z,47.30
2023-01-20T22:04:47.198Z,37.20
2023-01-20T22:07:15.665Z,37.70
2023-01-20T22:09:42.497Z,41.10
2023-01-20T22:12:10.469Z,43.40
2023-01-20T22:14:38.316Z,43.90
2023-01-20T22:17:06.656Z,44.80
2023-01-20T22:19:33.769Z,44.20
2023-01-20T22:22:01.429Z,51.20
2023-01-20T22:24:28.750Z,49.30
2023-01-20T22:26:55.771Z,47.20
2023-01-20T22:29:22.797Z,54.80
2023-01-20T22:31:56.032Z,51.80
2023-01-20T22:34:23.303Z,45.50
2023-01-20T22:36:50.147Z,52.30
2023-01-20T22:39:16.973Z,47.00
2023-01-20T22:41:43.928Z,45.50
2023-01-20T22:44:13.087Z,51.00
2023-01-20T22:46:39.904Z,50.60
2023-01-20T22:49:06.768Z,48.10
2023-01-20T22:51:33.553Z,50.00
2023-01-20T22:54:01.442Z,50.30
2023-01-20T22:56:31.668Z,45.20
2023-01-20T22:58:59.890Z,53.60
2023-01-20T23:01:30.549Z,54.00
2023-01-20T23:04:02.032Z,58.00
2023-01-20T23:06:32.631Z,47.80
2023-01-20T23:09:01.304Z,50.80
2023-01-20T23:11:28.438Z,54.20
2023-01-20T23:13:55.372Z,56.30
2023-01-20T23:16:22.944Z,55.30
2023-01-20T23:18:51.019Z,50.60
2023-01-20T23:21:21.097Z,51.40
2023-01-20T23:23:55.010Z,56.40
2023-01-20T23:26:28.462Z,60.50
2023-01-20T23:28:56.198Z,59.90
2023-01-20T23:31:24.890Z,60.50
2023-01-20T23:33:55.777Z,55.50
2023-01-20T23:36:24.766Z,61.40
2023-01-20T23:38:56.143Z,62.90
2023-01-20T23:41:26.066Z,51.20
2023-01-20T23:43:52.986Z,52.90
2023-01-20T23:46:19.859Z,59.10
2023-01-20T23:48:47.457Z,52.60
2023-01-20T23:51:14.802Z,57.70
2023-01-20T23:53:44.419Z,51.10
2023-01-20T23:56:18.195Z,49.30
2023-01-20T23:58:47.193Z,52.00
